createdAt,value
2022-08-07T00:00:59.655Z,99508.50
2022-08-07T00:04:01.571Z,99509.38
2022-08-07T00:07:05.498Z,99507.50
2022-08-07T00:10:26.325Z,99491.50
2022-08-07T00:13:29.430Z,99504.84
2022-08-07T00:16:31.247Z,99494.94
2022-08-07T00:20:00.536Z,99500.50
2022-08-07T00:22:55.729Z,99493.47
2022-08-07T00:26:02.823Z,99485.13
2022-08-07T00:29:15.324Z,99479.03
2022-08-07T00:32:18.737Z,99483.34
2022-08-07T00:35:30.509Z,99486.28
2022-08-07T00:38:34.131Z,99483.09
2022-08-07T00:41:37.311Z,99486.88
2022-08-07T00:44:47.308Z,99502.38
2022-08-07T00:48:08.802Z,99488.13
2022-08-07T00:51:13.901Z,99480.94
2022-08-07T00:54:16.310Z,99490.88
2022-08-07T00:57:26.630Z,99487.63
2022-08-07T01:00:35.673Z,99477.78
2022-08-07T01:03:57.127Z,99484.28
2022-08-07T01:06:59.578Z,99475.13
2022-08-07T01:10:06.300Z,99468.72
2022-08-07T01:13:16.344Z,99479.53
2022-08-07T01:16:30.303Z,99466.66
2022-08-07T01:19:34.475Z,99469.47
2022-08-07T01:22:57.793Z,99471.31
2022-08-07T01:26:07.936Z,99465.84
2022-08-07T01:29:15.759Z,99465.00
2022-08-07T01:32:18.243Z,99472.34
2022-08-07T01:35:24.454Z,99465.19
2022-08-07T01:38:29.284Z,99472.91
2022-08-07T01:41:36.332Z,99470.97
2022-08-07T01:44:39.092Z,99469.03
2022-08-07T01:48:19.912Z,99471.16
2022-08-07T01:51:24.331Z,99470.94
2022-08-07T01:54:36.769Z,99467.69
2022-08-07T01:58:06.407Z,99470.06
2022-08-07T02:01:58.758Z,99458.19
2022-08-07T02:04:56.022Z,99460.38
2022-08-07T02:08:03.018Z,99457.81
2022-08-07T02:11:30.917Z,99462.25
2022-08-07T02:14:40.796Z,99459.88
2022-08-07T02:17:51.891Z,99450.13
2022-08-07T02:20:57.837Z,99454.75
2022-08-07T02:24:00.512Z,99453.47
2022-08-07T02:27:04.357Z,99441.34
2022-08-07T02:30:08.714Z,99443.81
2022-08-07T02:33:13.961Z,99442.47
2022-08-07T02:36:30.419Z,99436.63
2022-08-07T02:39:43.979Z,99435.75
2022-08-07T02:43:07.900Z,99431.66
2022-08-07T02:46:11.596Z,99435.84
2022-08-07T02:49:28.825Z,99433.03
2022-08-07T02:53:03.329Z,99438.47
2022-08-07T02:56:20.931Z,99443.22
2022-08-07T02:59:27.710Z,99442.53
2022-08-07T03:02:35.565Z,99438.47
2022-08-07T03:05:39.426Z,99449.22
2022-08-07T03:08:43.770Z,99447.88
2022-08-07T03:11:51.936Z,99450.16
2022-08-07T03:15:07.515Z,99447.78
2022-08-07T03:18:17.490Z,99455.59
2022-08-07T03:21:23.633Z,99453.69
2022-08-07T03:24:27.761Z,99457.41
2022-08-07T03:28:09.182Z,99445.66
2022-08-07T03:31:17.350Z,99441.00
2022-08-07T03:34:22.053Z,99444.50
2022-08-07T03:37:28.984Z,99451.31
2022-08-07T03:40:36.940Z,99453.13
2022-08-07T03:43:57.506Z,99454.13
2022-08-07T03:47:12.960Z,99456.72
2022-08-07T03:50:23.177Z,99450.06
2022-08-07T03:54:01.903Z,99444.50
2022-08-07T03:57:03.582Z,99461.25
2022-08-07T04:00:10.499Z,99458.75
2022-08-07T04:03:21.733Z,99451.72
2022-08-07T04:06:37.118Z,99456.59
2022-08-07T04:09:50.173Z,99460.69
2022-08-07T04:12:57.363Z,99465.91
2022-08-07T04:16:01.454Z,99458.19
2022-08-07T04:19:12.739Z,99465.44
2022-08-07T04:22:29.479Z,99471.34
2022-08-07T04:25:39.300Z,99475.19
2022-08-07T04:28:43.085Z,99465.78
2022-08-07T04:32:03.367Z,99478.81
2022-08-07T04:35:11.490Z,99482.88
2022-08-07T04:38:15.656Z,99486.88
2022-08-07T04:41:22.249Z,99474.72
2022-08-07T04:44:26.799Z,99484.03
2022-08-07T04:47:56.903Z,99488.66
2022-08-07T04:51:10.821Z,99483.13
2022-08-07T04:54:30.124Z,99485.47
2022-08-07T04:58:12.970Z,99488.44
2022-08-07T05:01:30.281Z,99481.97
2022-08-07T05:05:02.162Z,99484.25
2022-08-07T05:08:14.465Z,99492.75
2022-08-07T05:11:57.301Z,99493.97
2022-08-07T05:14:59.375Z,99494.31
2022-08-07T05:18:10.387Z,99494.78
2022-08-07T05:21:18.497Z,99495.00
2022-08-07T05:24:41.859Z,99502.72
2022-08-07T05:28:03.411Z,99501.78
2022-08-07T05:31:16.954Z,99508.38
2022-08-07T05:34:21.343Z,99512.44
2022-08-07T05:37:29.335Z,99516.41
2022-08-07T05:40:50.391Z,99522.84
2022-08-07T05:44:12.720Z,99519.34
2022-08-07T05:47:20.921Z,99528.19
2022-08-07T05:50:43.074Z,99527.94
2022-08-07T05:54:13.621Z,99526.13
2022-08-07T05:57:09.936Z,99528.31
2022-08-07T06:00:16.347Z,99535.66
2022-08-07T06:03:53.874Z,99537.13
2022-08-07T06:06:56.635Z,99545.16
2022-08-07T06:10:06.610Z,99525.09
2022-08-07T06:13:17.833Z,99538.22
2022-08-07T06:16:23.713Z,99544.34
2022-08-07T06:19:51.752Z,99544.66
2022-08-07T06:23:02.226Z,99538.97
2022-08-07T06:26:20.271Z,99538.03
2022-08-07T06:29:27.706Z,99547.09
2022-08-07T06:32:32.718Z,99547.75
2022-08-07T06:35:45.497Z,99546.81
2022-08-07T06:38:59.495Z,99540.84
2022-08-07T06:42:34.869Z,99537.41
2022-08-07T06:45:49.053Z,99542.19
2022-08-07T06:48:57.386Z,99543.81
2022-08-07T06:52:13.620Z,99540.22
2022-08-07T06:56:00.365Z,99552.84
2022-08-07T07:00:13.649Z,99546.50
2022-08-07T07:02:54.230Z,99539.31
2022-08-07T07:06:10.932Z,99536.41
2022-08-07T07:09:36.197Z,99507.22
2022-08-07T07:12:58.873Z,99528.50
2022-08-07T07:16:11.939Z,99521.66
2022-08-07T07:19:56.131Z,99529.50
2022-08-07T07:24:09.176Z,99524.44
2022-08-07T07:26:34.780Z,99512.84
2022-08-07T07:33:41.489Z,99508.06
2022-08-07T07:36:54.175Z,99527.69
2022-08-07T07:40:02.627Z,99510.00
2022-08-07T07:43:18.747Z,99515.03
2022-08-07T07:46:54.722Z,99512.72
2022-08-07T07:50:33.020Z,99510.44
2022-08-07T07:53:27.602Z,99505.03
2022-08-07T07:56:34.106Z,99498.81
2022-08-07T07:59:52.342Z,99498.81
2022-08-07T08:03:04.510Z,99493.28
2022-08-07T08:06:13.030Z,99505.88
2022-08-07T08:09:20.658Z,99504.66
2022-08-07T08:12:52.500Z,99490.88
2022-08-07T08:15:58.920Z,99490.03
2022-08-07T08:19:17.312Z,99497.72
2022-08-07T08:22:55.803Z,99489.59
2022-08-07T08:26:19.841Z,99489.41
2022-08-07T08:29:22.629Z,99465.81
2022-08-07T08:32:38.387Z,99487.88
2022-08-07T08:35:46.961Z,99457.13
2022-08-07T08:38:54.852Z,99471.28
2022-08-07T08:42:04.993Z,99482.69
2022-08-07T08:45:41.934Z,99476.84
2022-08-07T08:49:10.305Z,99468.25
2022-08-07T08:52:30.402Z,99466.38
2022-08-07T08:55:54.371Z,99480.44
2022-08-07T08:59:16.455Z,99474.06
2022-08-07T09:02:36.378Z,99476.31
2022-08-07T09:05:56.310Z,99470.28
2022-08-07T09:09:13.489Z,99461.66
2022-08-07T09:12:35.033Z,99466.44
2022-08-07T09:16:22.942Z,99454.38
2022-08-07T09:19:59.614Z,99459.66
2022-08-07T09:24:33.684Z,99453.16
2022-08-07T09:27:24.664Z,99452.94
2022-08-07T09:30:54.917Z,99449.56
2022-08-07T09:33:58.236Z,99449.16
2022-08-07T09:37:04.868Z,99444.47
2022-08-07T09:40:24.688Z,99443.97
2022-08-07T09:44:06.585Z,99445.28
2022-08-07T09:47:50.042Z,99437.34
2022-08-07T09:51:02.074Z,99431.38
2022-08-07T09:54:08.331Z,99429.28
2022-08-07T09:57:46.481Z,99426.34
2022-08-07T10:05:29.367Z,99405.09
2022-08-07T10:09:01.277Z,99400.63
2022-08-07T10:12:28.481Z,99400.09
2022-08-07T10:16:15.113Z,99398.31
2022-08-07T10:19:46.683Z,99387.63
2022-08-07T10:23:10.556Z,99388.19
2022-08-07T10:27:10.233Z,99378.53
2022-08-07T10:30:36.961Z,99381.31
2022-08-07T10:34:06.603Z,99370.72
2022-08-07T10:38:00.398Z,99364.25
2022-08-07T10:41:09.354Z,99360.78
2022-08-07T10:44:39.037Z,99361.25
2022-08-07T10:48:03.066Z,99349.31
2022-08-07T10:51:39.138Z,99350.16
2022-08-07T10:54:53.464Z,99357.84
2022-08-07T10:58:12.873Z,99352.91
2022-08-07T11:01:25.697Z,99354.59
2022-08-07T11:05:15.435Z,99346.22
2022-08-07T11:08:40.992Z,99341.66
2022-08-07T11:12:01.675Z,99329.69
2022-08-07T11:15:17.361Z,99330.94
2022-08-07T11:18:36.983Z,99331.25
2022-08-07T11:22:03.610Z,99327.69
2022-08-07T11:25:06.834Z,99323.84
2022-08-07T11:28:36.201Z,99304.56
2022-08-07T11:32:12.145Z,99294.50
2022-08-07T11:35:26.800Z,99314.53
2022-08-07T11:38:59.273Z,99295.16
2022-08-07T11:42:18.962Z,99299.59
2022-08-07T11:45:37.870Z,99303.44
2022-08-07T11:49:50.696Z,99288.78
2022-08-07T11:52:28.950Z,99290.44
2022-08-07T11:56:09.136Z,99293.34
2022-08-07T12:00:12.602Z,99273.22
2022-08-07T12:03:41.692Z,99286.97
2022-08-07T12:06:55.354Z,99290.63
2022-08-07T12:10:14.013Z,99290.44
2022-08-07T12:13:35.267Z,99287.88
2022-08-07T12:17:20.289Z,99288.16
2022-08-07T12:20:43.446Z,99269.84
2022-08-07T12:24:07.053Z,99271.97
2022-08-07T12:27:18.632Z,99266.44
2022-08-07T12:30:34.775Z,99263.66
2022-08-07T12:34:00.919Z,99269.25
2022-08-07T12:37:00.838Z,99258.47
2022-08-07T12:40:05.038Z,99268.75
2022-08-07T12:44:01.966Z,99253.88
2022-08-07T12:47:09.749Z,99260.06
2022-08-07T12:50:34.295Z,99251.44
2022-08-07T12:54:37.096Z,99251.66
2022-08-07T12:57:39.248Z,99251.28
2022-08-07T13:01:32.530Z,99239.66
2022-08-07T13:05:01.654Z,99242.22
2022-08-07T13:08:34.074Z,99241.81
2022-08-07T13:12:03.518Z,99240.03
2022-08-07T13:15:36.448Z,99242.25
2022-08-07T13:18:59.062Z,99235.69
2022-08-07T13:22:19.432Z,99234.56
2022-08-07T13:25:34.625Z,99213.06
2022-08-07T13:28:47.033Z,99210.50
2022-08-07T13:32:00.177Z,99202.63
2022-08-07T13:35:25.633Z,99204.25
2022-08-07T13:39:04.994Z,99208.06
2022-08-07T13:42:18.872Z,99206.53
2022-08-07T13:46:11.069Z,99208.66
2022-08-07T13:48:51.934Z,99201.16
2022-08-07T13:52:27.194Z,99200.16
2022-08-07T13:55:36.967Z,99205.38
2022-08-07T13:59:00.604Z,99198.06
2022-08-07T14:02:12.956Z,99191.75
2022-08-07T14:05:23.198Z,99196.81
2022-08-07T14:08:25.585Z,99207.41
2022-08-07T14:11:53.650Z,99192.47
2022-08-07T14:14:56.243Z,99187.59
2022-08-07T14:18:16.085Z,99186.03
2022-08-07T14:22:02.406Z,99193.16
2022-08-07T14:24:53.768Z,99191.75
2022-08-07T14:28:11.359Z,99184.13
2022-08-07T14:31:16.438Z,99189.03
2022-08-07T14:34:27.249Z,99184.81
2022-08-07T14:41:04.179Z,99181.84
2022-08-07T14:44:11.753Z,99178.69
2022-08-07T14:47:18.772Z,99182.06
2022-08-07T14:50:23.470Z,99182.28
2022-08-07T14:54:08.704Z,99170.19
2022-08-07T14:56:54.299Z,99172.28
2022-08-07T15:00:04.272Z,99160.63
2022-08-07T15:03:16.609Z,99154.66
2022-08-07T15:06:25.109Z,99170.50
2022-08-07T15:09:58.332Z,99165.41
2022-08-07T15:12:54.635Z,99160.22
2022-08-07T15:16:02.749Z,99160.72
2022-08-07T15:19:16.713Z,99164.97
2022-08-07T15:22:29.405Z,99159.22
2022-08-07T15:25:39.503Z,99165.16
2022-08-07T15:28:55.552Z,99145.47
2022-08-07T15:36:00.721Z,99157.13
2022-08-07T15:46:04.513Z,99155.41
2022-08-07T15:50:05.789Z,99152.53
2022-08-07T15:52:51.677Z,99150.63
2022-08-07T15:56:02.120Z,99151.03
2022-08-07T15:59:16.640Z,99151.28
2022-08-07T16:02:32.401Z,99152.09
2022-08-07T16:05:34.973Z,99138.78
2022-08-07T16:08:45.479Z,99131.78
2022-08-07T16:12:15.294Z,99138.28
2022-08-07T16:15:57.208Z,99137.41
2022-08-07T16:19:42.910Z,99124.97
2022-08-07T16:23:13.429Z,99120.16
2022-08-07T16:26:59.395Z,99117.66
2022-08-07T16:30:31.973Z,99111.63
2022-08-07T16:34:06.151Z,99122.88
2022-08-07T16:38:03.368Z,99113.78
2022-08-07T16:41:12.295Z,99134.41
2022-08-07T16:45:23.300Z,99132.72
2022-08-07T16:49:04.340Z,99127.19
2022-08-07T16:52:51.930Z,99130.28
2022-08-07T16:55:47.859Z,99137.03
2022-08-07T16:59:14.871Z,99136.50
2022-08-07T17:02:52.910Z,99145.03
2022-08-07T17:06:30.138Z,99139.88
2022-08-07T17:10:05.157Z,99144.66
2022-08-07T17:13:41.532Z,99138.44
2022-08-07T17:17:02.552Z,99152.03
2022-08-07T17:20:20.924Z,99149.22
2022-08-07T17:23:32.483Z,99141.38
2022-08-07T17:26:58.110Z,99143.41
2022-08-07T17:30:14.047Z,99145.63
2022-08-07T17:34:09.558Z,99143.84
2022-08-07T17:37:08.985Z,99154.69
2022-08-07T17:40:30.450Z,99135.00
2022-08-07T17:44:01.621Z,99137.69
2022-08-07T17:47:42.759Z,99147.97
2022-08-07T17:50:47.056Z,99140.28
2022-08-07T17:54:11.489Z,99145.97
2022-08-07T17:57:56.522Z,99139.78
2022-08-07T18:00:54.423Z,99147.00
2022-08-07T18:04:17.484Z,99153.19
2022-08-07T18:07:28.723Z,99147.50
2022-08-07T18:11:53.670Z,99146.66
2022-08-07T18:14:24.233Z,99146.63
2022-08-07T18:18:47.544Z,99160.63
2022-08-07T18:21:42.191Z,99166.69
2022-08-07T18:24:40.657Z,99163.31
2022-08-07T18:28:21.556Z,99165.09
2022-08-07T18:32:03.313Z,99175.91
2022-08-07T18:35:26.136Z,99171.41
2022-08-07T18:38:55.492Z,99183.66
2022-08-07T18:42:20.996Z,99186.34
2022-08-07T18:46:25.819Z,99190.72
2022-08-07T18:50:19.686Z,99202.25
2022-08-07T18:53:05.769Z,99195.78
2022-08-07T18:56:20.166Z,99196.13
2022-08-07T18:59:59.364Z,99210.00
2022-08-07T19:03:17.410Z,99211.81
2022-08-07T19:06:57.971Z,99213.25
2022-08-07T19:10:14.906Z,99218.06
2022-08-07T19:13:27.487Z,99215.00
2022-08-07T19:17:05.783Z,99220.50
2022-08-07T19:20:28.904Z,99225.03
2022-08-07T19:23:58.874Z,99229.56
2022-08-07T19:28:58.737Z,99239.38
2022-08-07T19:31:00.216Z,99242.66
2022-08-07T19:33:58.427Z,99242.41
2022-08-07T19:37:10.336Z,99251.53
2022-08-07T19:40:31.281Z,99255.53
2022-08-07T19:43:44.031Z,99259.59
2022-08-07T19:46:58.062Z,99261.72
2022-08-07T19:50:44.552Z,99256.38
2022-08-07T19:54:32.943Z,99250.25
2022-08-07T19:57:59.983Z,99248.69
2022-08-07T20:00:29.005Z,99252.00
2022-08-07T20:03:35.708Z,99242.38
2022-08-07T20:06:43.002Z,99250.31
2022-08-07T20:10:36.645Z,99247.59
2022-08-07T20:13:23.670Z,99245.22
2022-08-07T20:16:35.719Z,99256.31
2022-08-07T20:19:49.457Z,99256.75
2022-08-07T20:23:23.339Z,99264.22
2022-08-07T20:26:45.190Z,99261.50
2022-08-07T20:29:56.955Z,99263.50
2022-08-07T20:33:04.905Z,99267.84
2022-08-07T20:36:12.090Z,99261.53
2022-08-07T20:40:01.689Z,99270.63
2022-08-07T20:42:56.275Z,99274.22
2022-08-07T20:46:26.519Z,99274.22
2022-08-07T20:50:00.773Z,99276.63
2022-08-07T20:52:51.196Z,99276.22
2022-08-07T20:55:59.773Z,99275.09
2022-08-07T20:59:05.110Z,99275.84
2022-08-07T21:02:38.466Z,99277.84
2022-08-07T21:05:56.449Z,99270.00
2022-08-07T21:09:07.500Z,99274.72
2022-08-07T21:12:16.753Z,99268.44
2022-08-07T21:15:47.501Z,99271.22
2022-08-07T21:19:02.606Z,99266.53
2022-08-07T21:22:06.078Z,99273.59
2022-08-07T21:25:17.819Z,99271.25
2022-08-07T21:28:48.804Z,99280.28
2022-08-07T21:32:47.200Z,99271.25
2022-08-07T21:36:03.945Z,99281.44
2022-08-07T21:39:45.191Z,99278.69
2022-08-07T21:42:52.842Z,99286.19
2022-08-07T21:46:08.583Z,99283.81
2022-08-07T21:50:02.348Z,99287.34
2022-08-07T21:53:31.227Z,99289.66
2022-08-07T21:56:50.641Z,99288.50
2022-08-07T22:00:22.723Z,99286.13
2022-08-07T22:03:42.141Z,99282.19
2022-08-07T22:06:49.853Z,99276.69
2022-08-07T22:10:00.451Z,99288.50
2022-08-07T22:13:09.473Z,99290.06
2022-08-07T22:16:38.346Z,99287.31
2022-08-07T22:19:57.223Z,99293.59
2022-08-07T22:23:21.754Z,99300.66
2022-08-07T22:26:44.677Z,99304.50
2022-08-07T22:29:56.646Z,99304.78
2022-08-07T22:33:06.262Z,99301.88
2022-08-07T22:36:52.543Z,99307.31
2022-08-07T22:40:09.085Z,99299.09
2022-08-07T22:43:15.793Z,99301.38
2022-08-07T22:47:03.025Z,99308.88
2022-08-07T22:49:55.027Z,99304.13
2022-08-07T22:54:06.326Z,99317.72
2022-08-07T22:57:25.758Z,99313.25
2022-08-07T23:01:10.585Z,99314.38
2022-08-07T23:04:28.932Z,99313.19
2022-08-07T23:07:42.906Z,99323.38
2022-08-07T23:11:17.196Z,99329.56
2022-08-07T23:14:56.870Z,99322.41
2022-08-07T23:18:32.024Z,99310.22
2022-08-07T23:21:56.438Z,99312.13
2022-08-07T23:25:17.055Z,99315.94
2022-08-07T23:28:44.256Z,99312.66
2022-08-07T23:34:22.386Z,99314.16
2022-08-07T23:35:37.711Z,99320.03
2022-08-07T23:39:08.517Z,99312.97
2022-08-07T23:43:03.186Z,99303.19
2022-08-07T23:46:51.683Z,99314.88
2022-08-07T23:51:01.307Z,99312.53
2022-08-07T23:54:44.028Z,99314.44
2022-08-07T23:58:04.280Z,99312.16
